This is the latest recevied weather packets stored in our database for station/object C31FR-13. If no packets are shown the sender has not sent any weather packets the latest 1 day(s).
| Time | Temp. | Humidity | Pressure | Rain* | Wind** | Luminosity | Snow |
|---|---|---|---|---|---|---|---|
| 1778066463 | 13.33° C | 47% | 1010.2 hPa | - | - | - | - |
| 1778065563 | 13.33° C | 47% | 1010.3 hPa | - | - | - | - |
| 1778064963 | 13.33° C | 47% | 1010.4 hPa | - | - | - | - |
| 1778064662 | 13.33° C | 47% | 1010.4 hPa | - | - | - | - |
| 1778064363 | 13.33° C | 47% | 1010.4 hPa | - | - | - | - |
| 1778063762 | 13.33° C | 46% | 1010.4 hPa | - | - | - | - |
| 1778062562 | 14.44° C | 47% | 1010.6 hPa | - | - | - | - |
| 1778061363 | 13.89° C | 51% | 1010.7 hPa | - | - | - | - |
| 1778058062 | 11.11° C | 57% | 1011 hPa | - | - | - | - |
| 1778057463 | 11.11° C | 61% | 1011.2 hPa | - | - | - | - |
| 1778056863 | 10.56° C | 61% | 1011.2 hPa | - | - | - | - |
| 1778055063 | 10.56° C | 63% | 1011.3 hPa | - | - | - | - |
| 1778054163 | 10° C | 64% | 1011.4 hPa | - | - | - | - |
| 1778053262 | 10° C | 65% | 1011.4 hPa | - | - | - | - |
| 1778052063 | 9.44° C | 68% | 1011.5 hPa | - | - | - | - |
| 1778051463 | 9.44° C | 70% | 1011.5 hPa | - | - | - | - |
| 1778050562 | 9.44° C | 68% | 1011.6 hPa | - | - | - | - |
| 1778049664 | 8.89° C | 70% | 1011.6 hPa | - | - | - | - |
| 1778049363 | 8.89° C | 71% | 1011.6 hPa | - | - | - | - |
| 1778049062 | 8.89° C | 71% | 1011.6 hPa | - | - | - | - |
| 1778048762 | 8.89° C | 73% | 1011.6 hPa | - | - | - | - |
| 1778048463 | 8.89° C | 75% | 1011.5 hPa | - | - | - | - |
| 1778048163 | 8.89° C | 76% | 1011.5 hPa | - | - | - | - |
| 1778046663 | 7.78° C | 81% | 1011.5 hPa | - | - | - | - |
| 1778045163 | 8.33° C | 78% | 1011.3 hPa | - | - | - | - |
* Rain since midnight (hover to see other rain measurements)
** Current wind speed in m/s (hover to see current wind gust speed)